Time;durP1;ratioP1;P1;durP2;ratioP2;P2;SDS_P1;SDS_P2;PMS_P1;PMS_P2;Temp;Humidity;BMP_temperature;BMP_pressure;BME280_temperature;BME280_humidity;BME280_pressure;Samples;Min_cycle;Max_cycle;Signal;HPM_P1;HPM_P2
2023/09/09 00:01:53;;;;;;;6.68;5.15;;;;;;;;;;5050699;28;20028;-73
2023/09/09 00:04:19;;;;;;;6.78;4.60;;;;;;;;;;5050530;28;20033;-73
2023/09/09 00:06:44;;;;;;;7.05;4.82;;;;;;;;;;5051069;28;20108;-73
2023/09/09 00:09:11;;;;;;;9.77;5.15;;;;;;;;;;5051003;28;20478;-73
2023/09/09 00:11:37;;;;;;;8.50;5.55;;;;;;;;;;5050609;28;20103;-73
2023/09/09 00:14:03;;;;;;;7.07;4.82;;;;;;;;;;5050654;28;20112;-74
2023/09/09 00:16:36;;;;;;;6.93;5.07;;;;;;;;;;5051345;28;20056;-72
2023/09/09 00:19:02;;;;;;;12.50;6.13;;;;;;;;;;5051230;28;20047;-72
2023/09/09 00:21:29;;;;;;;10.80;5.60;;;;;;;;;;5053977;28;20482;-72
2023/09/09 00:23:56;;;;;;;12.48;5.63;;;;;;;;;;5053093;28;20548;-72
2023/09/09 00:26:22;;;;;;;10.05;5.50;;;;;;;;;;5054676;28;20075;-73
2023/09/09 00:28:48;;;;;;;9.65;5.32;;;;;;;;;;5053950;28;20207;-73
2023/09/09 00:31:14;;;;;;;7.68;5.15;;;;;;;;;;5053055;28;20124;-73
2023/09/09 00:33:40;;;;;;;12.32;5.60;;;;;;;;;;5052244;28;20048;-73
2023/09/09 00:36:06;;;;;;;10.68;5.45;;;;;;;;;;5053643;28;20025;-73
2023/09/09 00:38:33;;;;;;;7.93;5.68;;;;;;;;;;5055545;28;20051;-73
2023/09/09 00:41:26;;;;;;;6.68;5.15;;;;;;;;;;5054259;28;20032;-73
2023/09/09 00:43:51;;;;;;;10.63;6.07;;;;;;;;;;5054230;28;20379;-73
2023/09/09 00:46:17;;;;;;;9.35;5.78;;;;;;;;;;5054261;28;20032;-72
2023/09/09 00:48:44;;;;;;;7.57;5.60;;;;;;;;;;5054215;28;20037;-73
2023/09/09 00:51:11;;;;;;;9.00;5.47;;;;;;;;;;5053959;28;20029;-73
2023/09/09 00:53:38;;;;;;;10.35;6.18;;;;;;;;;;5055174;28;20107;-73
2023/09/09 00:56:06;;;;;;;7.82;6.05;;;;;;;;;;5053671;28;20490;-73
2023/09/09 00:58:32;;;;;;;9.25;6.10;;;;;;;;;;5055202;28;20032;-73
2023/09/09 01:01:00;;;;;;;12.10;5.82;;;;;;;;;;5036629;28;20363;-73
2023/09/09 01:03:27;;;;;;;8.93;6.32;;;;;;;;;;5054117;28;20065;-73
2023/09/09 01:05:56;;;;;;;8.70;6.07;;;;;;;;;;5052903;28;20025;-72
2023/09/09 01:08:31;;;;;;;9.55;6.05;;;;;;;;;;5054674;28;20053;-73
2023/09/09 01:10:58;;;;;;;9.60;6.28;;;;;;;;;;5052933;28;20083;-73
2023/09/09 01:13:23;;;;;;;9.73;6.80;;;;;;;;;;5052758;28;20045;-73
2023/09/09 01:15:50;;;;;;;9.02;7.30;;;;;;;;;;5052799;28;20068;-73
2023/09/09 01:18:17;;;;;;;13.70;7.93;;;;;;;;;;5052879;28;20033;-73
2023/09/09 01:21:08;;;;;;;9.73;7.75;;;;;;;;;;5054376;28;20531;-73
2023/09/09 01:23:35;;;;;;;7.38;6.13;;;;;;;;;;5032836;28;20171;-73
2023/09/09 01:26:01;;;;;;;12.95;7.22;;;;;;;;;;5033079;28;20022;-73
2023/09/09 01:28:27;;;;;;;9.73;7.32;;;;;;;;;;5031578;28;20060;-72
2023/09/09 01:30:53;;;;;;;9.85;7.38;;;;;;;;;;5050399;28;20488;-74
2023/09/09 01:33:19;;;;;;;8.90;6.63;;;;;;;;;;5051084;28;20056;-73
2023/09/09 01:35:49;;;;;;;11.02;6.93;;;;;;;;;;5052425;28;20514;-74
2023/09/09 01:38:15;;;;;;;10.45;6.70;;;;;;;;;;5052684;28;20131;-74
2023/09/09 01:40:41;;;;;;;10.35;6.65;;;;;;;;;;5048432;28;20386;-73
2023/09/09 01:43:07;;;;;;;8.90;6.40;;;;;;;;;;5052111;28;20044;-73
2023/09/09 01:45:33;;;;;;;11.65;6.45;;;;;;;;;;5052070;28;20082;-74
2023/09/09 01:48:00;;;;;;;7.72;6.28;;;;;;;;;;5052483;28;20417;-73
2023/09/09 01:50:26;;;;;;;9.70;6.45;;;;;;;;;;5051431;28;20033;-73
2023/09/09 01:52:52;;;;;;;8.38;5.57;;;;;;;;;;5053396;28;20195;-73
2023/09/09 01:55:19;;;;;;;10.55;6.60;;;;;;;;;;5051659;28;20405;-73
2023/09/09 01:57:46;;;;;;;8.55;5.80;;;;;;;;;;5053249;28;20033;-73
2023/09/09 02:00:13;;;;;;;7.38;6.10;;;;;;;;;;5051835;28;20052;-72
2023/09/09 02:02:39;;;;;;;10.45;6.57;;;;;;;;;;5053338;28;20040;-72
2023/09/09 02:05:05;;;;;;;12.88;6.10;;;;;;;;;;5051774;28;20017;-72
2023/09/09 02:07:32;;;;;;;12.77;6.18;;;;;;;;;;5051655;28;20036;-72
2023/09/09 02:09:58;;;;;;;9.90;5.88;;;;;;;;;;5051696;28;20067;-72
2023/09/09 02:12:28;;;;;;;8.05;5.53;;;;;;;;;;5050847;28;20111;-72
2023/09/09 02:14:54;;;;;;;12.80;5.45;;;;;;;;;;5051713;28;20033;-73
2023/09/09 02:17:20;;;;;;;7.20;4.88;;;;;;;;;;5052673;28;20086;-73
2023/09/09 02:19:52;;;;;;;8.43;5.65;;;;;;;;;;5051396;28;20505;-73
2023/09/09 02:22:18;;;;;;;7.63;5.10;;;;;;;;;;5051230;28;20041;-72
2023/09/09 02:24:43;;;;;;;7.85;5.53;;;;;;;;;;5051418;28;20068;-72
2023/09/09 02:27:09;;;;;;;9.05;5.85;;;;;;;;;;5051877;28;20036;-72
2023/09/09 02:29:35;;;;;;;10.00;5.40;;;;;;;;;;5051685;28;20128;-72
2023/09/09 02:32:01;;;;;;;8.73;5.20;;;;;;;;;;5051550;28;20060;-73
2023/09/09 02:34:26;;;;;;;7.95;5.40;;;;;;;;;;5051779;28;20087;-73
2023/09/09 02:37:19;;;;;;;6.40;5.10;;;;;;;;;;5034319;28;20372;-72
2023/09/09 02:39:50;;;;;;;8.77;5.72;;;;;;;;;;5043204;28;20491;-72
2023/09/09 02:42:18;;;;;;;7.88;5.22;;;;;;;;;;5031123;28;20380;-72
2023/09/09 02:44:44;;;;;;;9.60;5.28;;;;;;;;;;5042419;28;20024;-72
2023/09/09 02:47:12;;;;;;;9.05;5.28;;;;;;;;;;5050860;28;20036;-73
2023/09/09 02:49:38;;;;;;;11.10;5.63;;;;;;;;;;5052478;28;20552;-72
2023/09/09 02:52:06;;;;;;;12.40;6.10;;;;;;;;;;5051737;28;20025;-72
2023/09/09 02:54:31;;;;;;;12.40;5.80;;;;;;;;;;5050713;28;20052;-72
2023/09/09 02:56:57;;;;;;;13.10;6.13;;;;;;;;;;5050979;28;20028;-73
2023/09/09 02:59:23;;;;;;;8.18;5.82;;;;;;;;;;5050720;28;20021;-73
2023/09/09 03:01:49;;;;;;;11.15;5.80;;;;;;;;;;5050740;28;20029;-73
2023/09/09 03:04:15;;;;;;;10.27;6.00;;;;;;;;;;5050938;28;20385;-73
2023/09/09 03:06:41;;;;;;;9.13;5.70;;;;;;;;;;5050540;28;20119;-72
2023/09/09 03:09:07;;;;;;;10.88;6.07;;;;;;;;;;5050670;28;20143;-73
2023/09/09 03:11:33;;;;;;;14.05;6.45;;;;;;;;;;5052074;28;20108;-73
2023/09/09 03:13:59;;;;;;;14.20;6.82;;;;;;;;;;5050911;28;20021;-73
2023/09/09 03:16:25;;;;;;;20.95;7.10;;;;;;;;;;5050567;28;20043;-73
2023/09/09 03:18:51;;;;;;;11.27;6.30;;;;;;;;;;5050098;28;20116;-73
2023/09/09 03:21:17;;;;;;;11.75;6.88;;;;;;;;;;5050086;28;20498;-73
2023/09/09 03:23:43;;;;;;;7.63;5.90;;;;;;;;;;5050130;28;20408;-73
2023/09/09 03:26:11;;;;;;;15.55;6.53;;;;;;;;;;5049936;28;20070;-73
2023/09/09 03:28:36;;;;;;;10.10;6.13;;;;;;;;;;5050324;28;20394;-72
2023/09/09 03:31:03;;;;;;;11.07;6.65;;;;;;;;;;5049077;28;20115;-73
2023/09/09 03:33:31;;;;;;;10.40;6.05;;;;;;;;;;5047056;28;20142;-73
2023/09/09 03:35:57;;;;;;;8.85;6.03;;;;;;;;;;5050871;28;20438;-73
2023/09/09 03:38:23;;;;;;;8.65;5.72;;;;;;;;;;5075272;28;20036;-73
2023/09/09 03:40:49;;;;;;;9.45;6.05;;;;;;;;;;5045307;28;20111;-72
2023/09/09 03:43:15;;;;;;;10.82;6.05;;;;;;;;;;5049992;28;20578;-72
2023/09/09 03:45:41;;;;;;;8.73;6.13;;;;;;;;;;5049693;28;20624;-72
2023/09/09 03:48:08;;;;;;;8.73;7.13;;;;;;;;;;5049100;28;20024;-72
2023/09/09 03:50:35;;;;;;;10.13;5.97;;;;;;;;;;5049428;28;20106;-72
2023/09/09 03:53:00;;;;;;;16.48;6.60;;;;;;;;;;5051036;28;20017;-72
2023/09/09 03:55:26;;;;;;;8.70;5.82;;;;;;;;;;5050763;28;20064;-72
2023/09/09 03:57:53;;;;;;;14.02;6.10;;;;;;;;;;5054080;28;20029;-72
2023/09/09 04:00:19;;;;;;;8.30;5.80;;;;;;;;;;5053871;28;20033;-73
2023/09/09 04:02:46;;;;;;;7.35;5.43;;;;;;;;;;5052837;28;20093;-73
2023/09/09 04:05:13;;;;;;;9.80;5.43;;;;;;;;;;5052596;28;20028;-73
2023/09/09 04:07:43;;;;;;;10.60;6.07;;;;;;;;;;5053442;28;20040;-73
2023/09/09 04:10:11;;;;;;;8.50;5.78;;;;;;;;;;5053258;28;20033;-73
2023/09/09 04:12:37;;;;;;;9.68;5.78;;;;;;;;;;5053254;28;20025;-74
2023/09/09 04:15:05;;;;;;;9.35;5.82;;;;;;;;;;5054642;28;20119;-74
2023/09/09 04:17:31;;;;;;;12.30;6.07;;;;;;;;;;5054952;28;20029;-74
2023/09/09 04:19:57;;;;;;;13.07;6.22;;;;;;;;;;5037311;28;20051;-74
2023/09/09 04:22:23;;;;;;;12.25;6.30;;;;;;;;;;5053153;28;20020;-73
2023/09/09 04:24:49;;;;;;;15.35;9.40;;;;;;;;;;5053336;28;20132;-73
2023/09/09 04:27:15;;;;;;;17.45;8.52;;;;;;;;;;5036932;28;20076;-73
2023/09/09 04:29:41;;;;;;;15.20;7.45;;;;;;;;;;5036894;28;20068;-73
2023/09/09 04:32:07;;;;;;;14.05;7.47;;;;;;;;;;5052556;28;20069;-73
2023/09/09 04:34:32;;;;;;;18.40;6.78;;;;;;;;;;5036362;28;20318;-72
2023/09/09 04:36:58;;;;;;;18.83;6.43;;;;;;;;;;5052888;28;20025;-72
2023/09/09 04:39:24;;;;;;;16.23;6.07;;;;;;;;;;5053504;28;20033;-71
2023/09/09 04:41:50;;;;;;;11.13;7.65;;;;;;;;;;5054528;28;20429;-71
2023/09/09 04:44:16;;;;;;;10.85;5.80;;;;;;;;;;5052971;28;20033;-72
2023/09/09 04:46:43;;;;;;;13.95;5.68;;;;;;;;;;5053038;28;20052;-72
2023/09/09 04:49:09;;;;;;;7.55;5.68;;;;;;;;;;5052796;28;20451;-72
2023/09/09 04:51:35;;;;;;;9.07;5.05;;;;;;;;;;5052987;28;20036;-71
2023/09/09 04:54:03;;;;;;;12.35;5.50;;;;;;;;;;5052785;28;20171;-71
2023/09/09 04:56:29;;;;;;;12.32;5.15;;;;;;;;;;5054240;28;20053;-72
2023/09/09 04:58:55;;;;;;;8.88;4.60;;;;;;;;;;5051765;28;20509;-72
2023/09/09 05:01:21;;;;;;;14.48;5.60;;;;;;;;;;5051911;28;20021;-72
2023/09/09 05:03:47;;;;;;;11.82;5.40;;;;;;;;;;5052780;28;20450;-72
2023/09/09 05:06:14;;;;;;;9.88;4.55;;;;;;;;;;5053686;28;20459;-72
2023/09/09 05:08:40;;;;;;;8.15;4.45;;;;;;;;;;5051095;28;20083;-72
2023/09/09 05:11:06;;;;;;;8.32;4.88;;;;;;;;;;5051615;28;20028;-71
2023/09/09 05:13:33;;;;;;;10.68;4.85;;;;;;;;;;5054089;28;20447;-72
2023/09/09 05:16:00;;;;;;;8.93;4.38;;;;;;;;;;5052351;28;20121;-71
2023/09/09 05:18:25;;;;;;;9.95;4.30;;;;;;;;;;5052685;28;20220;-72
2023/09/09 05:20:51;;;;;;;5.68;4.15;;;;;;;;;;5049412;28;20025;-72
2023/09/09 05:23:18;;;;;;;7.20;4.40;;;;;;;;;;5051483;28;20031;-71
2023/09/09 05:25:44;;;;;;;10.93;4.80;;;;;;;;;;5053761;28;20013;-72
2023/09/09 05:28:10;;;;;;;10.10;4.82;;;;;;;;;;5052888;28;20043;-72
2023/09/09 05:30:40;;;;;;;7.93;4.28;;;;;;;;;;5050259;28;20116;-71
2023/09/09 05:33:07;;;;;;;8.32;4.70;;;;;;;;;;5051140;28;20086;-71
2023/09/09 05:35:34;;;;;;;12.55;4.80;;;;;;;;;;5051271;28;20351;-71
2023/09/09 05:38:00;;;;;;;6.88;4.30;;;;;;;;;;5052866;28;20409;-71
2023/09/09 05:40:26;;;;;;;9.80;4.53;;;;;;;;;;5053186;28;20074;-71
2023/09/09 05:42:52;;;;;;;8.73;4.13;;;;;;;;;;5051244;28;20062;-71
2023/09/09 05:45:17;;;;;;;8.57;4.43;;;;;;;;;;5033317;28;20013;-71
2023/09/09 05:47:45;;;;;;;8.38;4.43;;;;;;;;;;5050914;28;20025;-71
2023/09/09 05:50:12;;;;;;;10.23;4.78;;;;;;;;;;5050636;28;20048;-72
2023/09/09 05:52:39;;;;;;;9.57;4.18;;;;;;;;;;5059487;28;20029;-72
2023/09/09 05:55:08;;;;;;;7.20;4.28;;;;;;;;;;5050987;28;20021;-72
2023/09/09 05:57:34;;;;;;;8.25;4.38;;;;;;;;;;5050834;28;20395;-72
2023/09/09 06:00:02;;;;;;;6.47;4.15;;;;;;;;;;5051573;28;20028;-72
2023/09/09 06:02:38;;;;;;;10.80;4.70;;;;;;;;;;5051984;28;20045;-72
2023/09/09 06:05:06;;;;;;;15.02;4.35;;;;;;;;;;5051371;28;20036;-72
2023/09/09 06:07:33;;;;;;;8.27;4.25;;;;;;;;;;5051027;28;20170;-72
2023/09/09 06:10:00;;;;;;;6.82;4.18;;;;;;;;;;5050923;28;20447;-72
2023/09/09 06:12:27;;;;;;;8.88;4.40;;;;;;;;;;5051188;28;20029;-72
2023/09/09 06:14:54;;;;;;;9.55;4.13;;;;;;;;;;5050973;28;20037;-71
2023/09/09 06:17:20;;;;;;;8.95;4.85;;;;;;;;;;5051204;28;20154;-74
2023/09/09 06:19:46;;;;;;;7.30;4.50;;;;;;;;;;5050526;28;20064;-72
2023/09/09 06:22:11;;;;;;;7.45;4.32;;;;;;;;;;5034179;28;20032;-72
2023/09/09 06:24:37;;;;;;;13.30;4.47;;;;;;;;;;5050245;28;20043;-71
2023/09/09 06:27:03;;;;;;;7.03;4.35;;;;;;;;;;5049411;28;20035;-72
2023/09/09 06:29:29;;;;;;;6.57;3.85;;;;;;;;;;5049398;28;20056;-71
2023/09/09 06:31:55;;;;;;;9.13;3.97;;;;;;;;;;5050819;28;20072;-72
2023/09/09 06:34:21;;;;;;;8.80;4.32;;;;;;;;;;5050814;28;20098;-71
2023/09/09 06:36:47;;;;;;;14.45;5.50;;;;;;;;;;5051156;28;20509;-72
2023/09/09 06:39:13;;;;;;;7.43;4.70;;;;;;;;;;5034755;28;20367;-72
2023/09/09 06:41:39;;;;;;;9.88;5.00;;;;;;;;;;5052329;28;20033;-72
2023/09/09 06:44:05;;;;;;;9.38;4.90;;;;;;;;;;5051261;28;20204;-72
2023/09/09 06:46:31;;;;;;;7.63;4.78;;;;;;;;;;5050572;28;20143;-71
2023/09/09 06:48:57;;;;;;;9.75;4.45;;;;;;;;;;5051822;28;20522;-71
2023/09/09 06:51:23;;;;;;;8.57;4.32;;;;;;;;;;5051323;28;20025;-71
2023/09/09 06:53:49;;;;;;;9.60;4.53;;;;;;;;;;5033636;28;20029;-71
2023/09/09 06:56:14;;;;;;;7.90;4.40;;;;;;;;;;5051253;28;20471;-71
2023/09/09 06:58:40;;;;;;;8.10;4.13;;;;;;;;;;5050487;28;20041;-71
2023/09/09 07:01:06;;;;;;;7.60;4.13;;;;;;;;;;5049507;28;20491;-73
2023/09/09 07:09:33;;;;;;;10.77;3.65;;;;;;;;;;5067111;28;20169;-69
2023/09/09 07:11:59;;;;;;;7.95;4.07;;;;;;;;;;5071181;28;20032;-71
2023/09/09 07:14:25;;;;;;;5.97;3.30;;;;;;;;;;5071075;28;20020;-69
2023/09/09 07:16:51;;;;;;;12.35;3.78;;;;;;;;;;5070841;28;20032;-71
2023/09/09 07:26:51;;;;;;;5.05;3.58;;;;;;;;;;5071122;28;20044;-69
2023/09/09 07:29:17;;;;;;;8.63;3.72;;;;;;;;;;5070340;28;20032;-69
2023/09/09 07:31:42;;;;;;;7.95;3.67;;;;;;;;;;5069534;28;20031;-68
2023/09/09 07:34:09;;;;;;;7.32;3.83;;;;;;;;;;5070716;28;20516;-69
2023/09/09 07:36:35;;;;;;;9.15;3.40;;;;;;;;;;5069667;28;20030;-68
2023/09/09 07:39:00;;;;;;;7.68;3.70;;;;;;;;;;5070546;28;20048;-68
2023/09/09 07:41:26;;;;;;;9.90;4.60;;;;;;;;;;5070064;28;20044;-69
2023/09/09 07:43:52;;;;;;;8.68;3.58;;;;;;;;;;5070758;28;20090;-69
2023/09/09 07:46:18;;;;;;;4.68;3.08;;;;;;;;;;5070365;28;20055;-69
2023/09/09 07:48:44;;;;;;;7.40;3.40;;;;;;;;;;5070613;28;20453;-69
2023/09/09 07:51:10;;;;;;;7.03;3.72;;;;;;;;;;5070803;28;20227;-68
2023/09/09 07:53:35;;;;;;;9.25;2.70;;;;;;;;;;5069864;28;20051;-70
2023/09/09 07:56:01;;;;;;;6.68;3.00;;;;;;;;;;5069403;28;20069;-70
2023/09/09 07:58:27;;;;;;;10.18;2.97;;;;;;;;;;5052535;28;20036;-71
2023/09/09 08:01:06;;;;;;;4.68;2.50;;;;;;;;;;5070185;28;20032;-70
2023/09/09 08:03:33;;;;;;;5.72;2.92;;;;;;;;;;5070510;28;20036;-70
2023/09/09 08:06:06;;;;;;;6.45;2.60;;;;;;;;;;5052062;28;20017;-69
2023/09/09 08:08:37;;;;;;;6.15;2.42;;;;;;;;;;5069775;28;20032;-70
2023/09/09 08:11:04;;;;;;;9.55;2.70;;;;;;;;;;5070254;28;20024;-70
2023/09/09 08:13:30;;;;;;;4.07;2.00;;;;;;;;;;5052509;28;20520;-70
2023/09/09 08:15:58;;;;;;;7.95;2.40;;;;;;;;;;5070244;28;20123;-70
2023/09/09 08:18:24;;;;;;;5.32;2.20;;;;;;;;;;5070492;28;20505;-69
2023/09/09 08:20:50;;;;;;;4.85;2.38;;;;;;;;;;5069660;28;20417;-68
2023/09/09 08:23:17;;;;;;;8.57;2.67;;;;;;;;;;5070108;28;20087;-70
2023/09/09 08:25:43;;;;;;;5.95;2.45;;;;;;;;;;5070034;28;20080;-70
2023/09/09 08:28:09;;;;;;;3.55;1.92;;;;;;;;;;5051774;28;20030;-69
2023/09/09 08:30:35;;;;;;;4.88;2.17;;;;;;;;;;5070492;28;20086;-68
2023/09/09 08:33:01;;;;;;;7.47;2.15;;;;;;;;;;5069886;28;20410;-70
2023/09/09 08:35:30;;;;;;;9.00;1.90;;;;;;;;;;5069805;28;20432;-70
2023/09/09 08:37:56;;;;;;;3.70;1.80;;;;;;;;;;5065674;28;20405;-71
2023/09/09 08:40:21;;;;;;;4.95;1.67;;;;;;;;;;5069515;28;20028;-71
2023/09/09 08:43:02;;;;;;;4.38;1.80;;;;;;;;;;5071475;28;20457;-70
2023/09/09 08:46:17;;;;;;;3.97;1.77;;;;;;;;;;5053334;28;20028;-69
2023/09/09 08:48:44;;;;;;;5.78;2.15;;;;;;;;;;5022683;28;20059;-69
2023/09/09 08:51:14;;;;;;;5.82;2.28;;;;;;;;;;5073537;28;20404;-69
2023/09/09 08:53:49;;;;;;;5.50;2.40;;;;;;;;;;5072544;28;20040;-69
2023/09/09 08:56:16;;;;;;;7.95;2.30;;;;;;;;;;5073355;28;20086;-71
2023/09/09 08:58:42;;;;;;;6.75;2.00;;;;;;;;;;5073086;28;20031;-69
2023/09/09 09:01:08;;;;;;;6.10;2.42;;;;;;;;;;5073571;28;20436;-69
2023/09/09 09:03:35;;;;;;;7.03;2.33;;;;;;;;;;5072908;28;20051;-70
2023/09/09 09:06:04;;;;;;;6.10;2.13;;;;;;;;;;5073198;28;20028;-70
2023/09/09 09:08:31;;;;;;;5.10;1.98;;;;;;;;;;5073290;28;20373;-69
2023/09/09 09:10:58;;;;;;;8.75;2.22;;;;;;;;;;5073132;28;20038;-70
2023/09/09 09:13:25;;;;;;;3.42;2.03;;;;;;;;;;5073697;28;20036;-70
2023/09/09 09:15:50;;;;;;;8.02;2.25;;;;;;;;;;5073193;28;20435;-70
2023/09/09 09:18:16;;;;;;;8.10;2.15;;;;;;;;;;5073096;28;20039;-70
2023/09/09 09:20:42;;;;;;;6.65;2.40;;;;;;;;;;5072921;28;20024;-70
2023/09/09 09:23:13;;;;;;;3.97;2.05;;;;;;;;;;5073098;28;20040;-70
2023/09/09 09:25:45;;;;;;;5.90;2.35;;;;;;;;;;5073049;28;20418;-68
2023/09/09 09:28:15;;;;;;;5.85;2.33;;;;;;;;;;5072942;28;20047;-70
2023/09/09 09:30:42;;;;;;;4.47;2.03;;;;;;;;;;5072875;28;20039;-71
2023/09/09 09:33:08;;;;;;;3.60;2.00;;;;;;;;;;5072598;28;20044;-70
2023/09/09 09:35:38;;;;;;;7.10;2.50;;;;;;;;;;5055163;28;20048;-70
2023/09/09 09:38:17;;;;;;;5.35;2.28;;;;;;;;;;5072230;28;20028;-70
2023/09/09 09:40:44;;;;;;;7.38;2.30;;;;;;;;;;5072554;28;20126;-70
2023/09/09 09:43:20;;;;;;;5.28;2.13;;;;;;;;;;5072450;28;20138;-69
2023/09/09 09:45:46;;;;;;;5.15;2.03;;;;;;;;;;5073007;28;20025;-70
2023/09/09 09:48:25;;;;;;;5.35;2.40;;;;;;;;;;5072328;28;20024;-70
2023/09/09 09:50:53;;;;;;;4.68;2.13;;;;;;;;;;5071972;28;20044;-70
2023/09/09 09:53:18;;;;;;;3.50;2.10;;;;;;;;;;5071437;28;20466;-70
2023/09/09 09:55:46;;;;;;;5.40;2.55;;;;;;;;;;5072384;28;20059;-70
2023/09/09 09:58:13;;;;;;;6.10;2.28;;;;;;;;;;5072141;28;20029;-70
2023/09/09 10:00:39;;;;;;;4.57;2.13;;;;;;;;;;5071920;28;20036;-70
2023/09/09 10:03:06;;;;;;;6.65;2.10;;;;;;;;;;5071622;28;20074;-69
2023/09/09 10:05:34;;;;;;;4.00;2.40;;;;;;;;;;5072006;28;20043;-69
2023/09/09 10:08:09;;;;;;;7.55;2.28;;;;;;;;;;5072057;28;20103;-70
2023/09/09 10:10:36;;;;;;;8.90;2.70;;;;;;;;;;5071904;28;20547;-69
2023/09/09 10:13:27;;;;;;;3.78;2.22;;;;;;;;;;5071949;28;20027;-69
2023/09/09 10:15:55;;;;;;;3.40;2.28;;;;;;;;;;5071560;28;20401;-70
2023/09/09 10:18:24;;;;;;;5.82;2.33;;;;;;;;;;5061610;28;20107;-69
2023/09/09 10:20:52;;;;;;;9.23;2.58;;;;;;;;;;5070079;28;20104;-69
2023/09/09 10:23:21;;;;;;;6.18;2.17;;;;;;;;;;5071428;28;20031;-70
2023/09/09 10:25:52;;;;;;;5.95;2.20;;;;;;;;;;5071852;28;20215;-68
2023/09/09 10:28:21;;;;;;;5.13;1.92;;;;;;;;;;5071142;28;20036;-71
2023/09/09 10:30:48;;;;;;;5.40;2.63;;;;;;;;;;5061545;28;20473;-69
2023/09/09 10:33:17;;;;;;;4.07;2.30;;;;;;;;;;5072186;28;20148;-70
2023/09/09 10:35:47;;;;;;;5.30;2.22;;;;;;;;;;5071701;28;20024;-69
2023/09/09 10:38:14;;;;;;;5.10;2.13;;;;;;;;;;5072208;28;20175;-70
2023/09/09 10:40:41;;;;;;;3.97;2.20;;;;;;;;;;5071732;28;20488;-70
2023/09/09 10:43:07;;;;;;;4.97;2.55;;;;;;;;;;5071611;28;20170;-70
2023/09/09 10:45:41;;;;;;;5.35;2.10;;;;;;;;;;5062043;28;20493;-70
2023/09/09 10:48:10;;;;;;;5.60;2.47;;;;;;;;;;5071479;28;20047;-70
2023/09/09 10:50:39;;;;;;;4.68;2.30;;;;;;;;;;5071791;28;20035;-71
2023/09/09 10:53:27;;;;;;;5.72;2.30;;;;;;;;;;5072061;28;20025;-70
2023/09/09 10:56:01;;;;;;;7.00;2.42;;;;;;;;;;5071685;28;20290;-69
2023/09/09 10:58:32;;;;;;;3.58;2.38;;;;;;;;;;5071736;28;20028;-70
2023/09/09 11:00:59;;;;;;;3.85;2.30;;;;;;;;;;5071567;28;20028;-69
2023/09/09 11:03:36;;;;;;;8.98;2.70;;;;;;;;;;5071531;28;20028;-71
2023/09/09 11:06:11;;;;;;;7.40;2.70;;;;;;;;;;5070536;28;20044;-69
2023/09/09 11:08:40;;;;;;;6.50;2.80;;;;;;;;;;5071606;28;20051;-68
2023/09/09 11:11:18;;;;;;;8.73;2.80;;;;;;;;;;5070983;28;20161;-70
2023/09/09 11:13:53;;;;;;;6.55;2.30;;;;;;;;;;5070072;28;20473;-70
2023/09/09 11:16:35;;;;;;;4.38;2.58;;;;;;;;;;5071708;28;20048;-70
2023/09/09 11:19:02;;;;;;;6.00;3.00;;;;;;;;;;5071900;28;20033;-70
2023/09/09 11:21:32;;;;;;;4.85;2.70;;;;;;;;;;5071502;28;20181;-70
2023/09/09 11:23:58;;;;;;;6.95;2.70;;;;;;;;;;5071549;28;20044;-71
2023/09/09 11:26:24;;;;;;;8.95;2.92;;;;;;;;;;5071516;28;20017;-69
2023/09/09 11:28:51;;;;;;;6.75;2.42;;;;;;;;;;5071553;28;20035;-70
2023/09/09 11:31:17;;;;;;;3.72;2.47;;;;;;;;;;5071544;28;20031;-70
2023/09/09 11:33:44;;;;;;;5.78;2.70;;;;;;;;;;5071906;28;20040;-69
2023/09/09 11:36:09;;;;;;;5.07;2.80;;;;;;;;;;5071613;28;20466;-71
2023/09/09 11:38:39;;;;;;;7.20;3.40;;;;;;;;;;5071572;28;20051;-70
2023/09/09 11:41:07;;;;;;;4.68;2.92;;;;;;;;;;5071404;28;20051;-70
2023/09/09 11:43:33;;;;;;;4.50;2.63;;;;;;;;;;5053815;28;20036;-68
2023/09/09 11:46:00;;;;;;;6.95;3.13;;;;;;;;;;5071409;28;20020;-69
2023/09/09 11:48:26;;;;;;;6.43;2.80;;;;;;;;;;5071362;28;20038;-69
2023/09/09 11:50:55;;;;;;;9.93;3.00;;;;;;;;;;5071340;28;20469;-70
2023/09/09 11:53:22;;;;;;;6.60;3.20;;;;;;;;;;5071031;28;20059;-69
2023/09/09 11:55:54;;;;;;;7.28;3.20;;;;;;;;;;5071483;28;20036;-70
2023/09/09 11:58:20;;;;;;;5.95;2.40;;;;;;;;;;5061907;28;20385;-70
2023/09/09 12:00:46;;;;;;;4.72;2.50;;;;;;;;;;5071400;28;20086;-71
2023/09/09 12:03:20;;;;;;;5.97;2.47;;;;;;;;;;5071088;28;20032;-69
2023/09/09 12:05:50;;;;;;;5.18;2.53;;;;;;;;;;5072503;28;20023;-69
2023/09/09 12:08:16;;;;;;;3.72;2.33;;;;;;;;;;5072766;28;20151;-71
2023/09/09 12:10:42;;;;;;;5.82;2.95;;;;;;;;;;5061303;28;20155;-70
2023/09/09 12:13:08;;;;;;;5.72;2.42;;;;;;;;;;5071152;28;20519;-71
2023/09/09 12:15:33;;;;;;;5.55;2.85;;;;;;;;;;5071093;28;20026;-70
2023/09/09 12:18:00;;;;;;;5.65;2.40;;;;;;;;;;5073955;28;20057;-71
2023/09/09 12:20:26;;;;;;;5.40;2.38;;;;;;;;;;5074796;28;20016;-70
2023/09/09 12:22:52;;;;;;;8.90;2.65;;;;;;;;;;5074610;28;20467;-69
2023/09/09 12:25:28;;;;;;;6.03;2.50;;;;;;;;;;5074667;28;20047;-70
2023/09/09 12:27:55;;;;;;;6.78;2.67;;;;;;;;;;5070092;28;20097;-70
2023/09/09 12:30:40;;;;;;;3.45;2.35;;;;;;;;;;5071636;28;20485;-70
2023/09/09 12:33:10;;;;;;;3.65;2.40;;;;;;;;;;5073920;28;20040;-70
2023/09/09 12:35:43;;;;;;;8.13;2.67;;;;;;;;;;5074026;28;20135;-71
2023/09/09 12:38:10;;;;;;;7.95;2.92;;;;;;;;;;5074187;28;20444;-70
2023/09/09 12:41:11;;;;;;;7.28;2.90;;;;;;;;;;5073908;28;20055;-69
2023/09/09 12:43:37;;;;;;;5.35;2.40;;;;;;;;;;5073613;28;20036;-71
2023/09/09 12:46:07;;;;;;;3.35;2.10;;;;;;;;;;5073249;28;20031;-69
2023/09/09 12:48:56;;;;;;;5.18;2.50;;;;;;;;;;5074169;28;20055;-69
2023/09/09 12:51:30;;;;;;;7.20;2.78;;;;;;;;;;5073238;28;20396;-69
2023/09/09 12:53:58;;;;;;;7.63;3.58;;;;;;;;;;5073900;28;20544;-70
2023/09/09 12:56:24;;;;;;;3.78;2.50;;;;;;;;;;5073529;28;20021;-69
2023/09/09 12:58:50;;;;;;;4.55;2.72;;;;;;;;;;5074139;28;20105;-69
2023/09/09 13:01:16;;;;;;;4.07;2.78;;;;;;;;;;5073414;28;20500;-69
2023/09/09 13:03:42;;;;;;;6.55;2.35;;;;;;;;;;5083468;28;20048;-69
2023/09/09 13:06:09;;;;;;;3.63;2.40;;;;;;;;;;5092681;28;20028;-69
2023/09/09 13:08:35;;;;;;;6.03;2.33;;;;;;;;;;5090839;28;20032;-69
2023/09/09 13:11:02;;;;;;;4.25;2.38;;;;;;;;;;5073530;28;20029;-69
2023/09/09 13:13:28;;;;;;;5.72;2.90;;;;;;;;;;5073888;28;20054;-69
2023/09/09 13:15:55;;;;;;;6.43;2.78;;;;;;;;;;5073591;28;20020;-69
2023/09/09 13:18:21;;;;;;;4.35;2.58;;;;;;;;;;5073841;28;20123;-70
2023/09/09 13:20:47;;;;;;;5.10;2.80;;;;;;;;;;5039084;28;20039;-71
2023/09/09 13:23:13;;;;;;;4.50;2.40;;;;;;;;;;5073759;28;20516;-70
2023/09/09 13:25:39;;;;;;;4.60;2.60;;;;;;;;;;5055994;28;20021;-70
2023/09/09 13:28:06;;;;;;;5.65;2.50;;;;;;;;;;5073963;28;20059;-69
2023/09/09 13:30:32;;;;;;;7.68;3.15;;;;;;;;;;5055869;28;20016;-70
2023/09/09 13:32:57;;;;;;;5.15;2.63;;;;;;;;;;5073802;28;20153;-71
2023/09/09 13:35:24;;;;;;;7.90;2.58;;;;;;;;;;5073176;28;20021;-71
2023/09/09 13:37:49;;;;;;;4.57;2.25;;;;;;;;;;5073248;28;20032;-71
2023/09/09 13:40:15;;;;;;;4.78;2.38;;;;;;;;;;5073561;28;20024;-70
2023/09/09 13:42:42;;;;;;;5.30;2.60;;;;;;;;;;5073203;28;20044;-70
2023/09/09 13:45:09;;;;;;;6.38;3.25;;;;;;;;;;5054784;28;20029;-71
2023/09/09 13:47:34;;;;;;;6.10;2.65;;;;;;;;;;5072193;28;20043;-72
2023/09/09 13:50:04;;;;;;;4.60;2.70;;;;;;;;;;5071590;28;20025;-72
2023/09/09 13:52:30;;;;;;;7.10;3.20;;;;;;;;;;5072637;28;20090;-70
2023/09/09 13:54:56;;;;;;;4.90;3.03;;;;;;;;;;5072165;28;20067;-72
2023/09/09 13:57:23;;;;;;;7.97;2.75;;;;;;;;;;5073838;28;20104;-71
2023/09/09 13:59:49;;;;;;;9.00;2.83;;;;;;;;;;5074040;28;20111;-71
2023/09/09 14:02:15;;;;;;;4.78;2.58;;;;;;;;;;5073303;28;20032;-71
2023/09/09 14:04:41;;;;;;;6.18;3.10;;;;;;;;;;5073147;28;20024;-71
2023/09/09 14:07:07;;;;;;;5.78;2.90;;;;;;;;;;5072929;28;20422;-70
2023/09/09 14:09:33;;;;;;;5.07;2.88;;;;;;;;;;5072977;28;20100;-70
2023/09/09 14:11:59;;;;;;;4.32;2.70;;;;;;;;;;5072119;28;20386;-69
2023/09/09 14:14:24;;;;;;;5.20;3.00;;;;;;;;;;5072610;28;20523;-69
2023/09/09 14:16:51;;;;;;;5.63;2.72;;;;;;;;;;5072607;28;20029;-69
2023/09/09 14:19:18;;;;;;;5.70;2.80;;;;;;;;;;5072810;28;20025;-69
2023/09/09 14:21:44;;;;;;;5.20;2.65;;;;;;;;;;5055301;28;20032;-68
2023/09/09 14:24:10;;;;;;;5.28;2.50;;;;;;;;;;5072469;28;20020;-68
2023/09/09 14:26:36;;;;;;;10.10;2.40;;;;;;;;;;5072627;28;20103;-70
2023/09/09 14:29:02;;;;;;;4.72;2.30;;;;;;;;;;5072482;28;20017;-70
2023/09/09 14:31:28;;;;;;;5.43;2.55;;;;;;;;;;5072086;28;20024;-70
2023/09/09 14:33:55;;;;;;;5.30;2.58;;;;;;;;;;5072257;28;20012;-69
2023/09/09 14:36:21;;;;;;;5.03;2.70;;;;;;;;;;5072187;28;20045;-68
2023/09/09 14:38:47;;;;;;;9.20;3.00;;;;;;;;;;5072276;28;20020;-69
2023/09/09 14:41:13;;;;;;;6.75;2.97;;;;;;;;;;5070475;28;20029;-70
2023/09/09 14:43:38;;;;;;;4.40;2.42;;;;;;;;;;5071684;28;20107;-69
2023/09/09 14:46:05;;;;;;;7.32;3.63;;;;;;;;;;5072060;28;20036;-69
2023/09/09 14:48:36;;;;;;;6.32;3.00;;;;;;;;;;5071987;28;20032;-71
2023/09/09 14:51:03;;;;;;;5.18;2.50;;;;;;;;;;5071719;28;20036;-70
2023/09/09 14:53:28;;;;;;;4.72;2.90;;;;;;;;;;5072394;28;20032;-70
2023/09/09 14:55:54;;;;;;;6.28;2.60;;;;;;;;;;5070062;28;20346;-70
2023/09/09 14:58:20;;;;;;;5.68;2.65;;;;;;;;;;5070674;28;20028;-70